You are not logged in, Click here to log in
Tromsø Airport / ENTC Tromsø
ICAO: ENTC Country: Tromsø
Latitude: 69.6833 Longitude: 18.9189
Total Arrivals: 3 Total Departures: 2
Latest Arrival: FS25 (ENSB-ENTC)ALAN. LIU Latest Departure: FS12 (ENTC-ENGM)CHU. CHUHAO
Scenery: http://en.wikipedia.org/wiki/Stord_Airport%2C_S%C3%B8rstokken
METAR : ENTC 110450Z VRB01KT 9999 SCT070 09/07 Q1007 RMK WIND 2600FT 20014KT

Tromsø Airport